createdAt,value
2019-03-30T00:00:01.281Z,1026.0419
2019-03-30T00:00:13.114Z,1026.0256
2019-03-30T00:00:24.947Z,1026.0405
2019-03-30T00:00:36.788Z,1026.0435
2019-03-30T00:00:48.622Z,1026.0355
2019-03-30T00:01:00.453Z,1026.0026
2019-03-30T00:01:12.286Z,1026.05
2019-03-30T00:01:24.123Z,1026.0484
2019-03-30T00:01:36.012Z,1026.0157
2019-03-30T00:01:47.884Z,1026.0007
2019-03-30T00:01:59.687Z,1025.9926
2019-03-30T00:02:11.518Z,1026.0057
2019-03-30T00:02:23.369Z,1025.991
2019-03-30T00:02:35.676Z,1026.0072
2019-03-30T00:02:47.231Z,1025.9714
2019-03-30T00:02:58.829Z,1025.9892
2019-03-30T00:03:10.664Z,1025.9632
2019-03-30T00:03:22.497Z,1025.9632
2019-03-30T00:03:34.325Z,1025.9694
2019-03-30T00:03:46.161Z,1025.9858
2019-03-30T00:03:58.988Z,1025.968
2019-03-30T00:04:10.826Z,1026.0136
2019-03-30T00:04:22.657Z,1025.958
2019-03-30T00:04:34.490Z,1025.9613
2019-03-30T00:04:46.315Z,1025.9643
2019-03-30T00:04:58.144Z,1025.9334
2019-03-30T00:05:09.980Z,1025.9465
2019-03-30T00:05:21.815Z,1025.9771
2019-03-30T00:05:33.652Z,1025.9659
2019-03-30T00:05:45.487Z,1025.9873
2019-03-30T00:05:57.329Z,1025.9755
2019-03-30T00:06:09.157Z,1025.9169
2019-03-30T00:06:20.990Z,1025.946
2019-03-30T00:06:32.849Z,1025.9887
2019-03-30T00:06:44.678Z,1025.9708
2019-03-30T00:06:56.511Z,1025.9626
2019-03-30T00:07:08.343Z,1026.0115
2019-03-30T00:07:20.175Z,1025.9921
2019-03-30T00:07:32.009Z,1025.9545
2019-03-30T00:07:43.846Z,1025.9432
2019-03-30T00:07:55.684Z,1025.9248
2019-03-30T00:08:07.517Z,1026.0018
2019-03-30T00:08:19.351Z,1026.0378
2019-03-30T00:08:31.186Z,1025.9776
2019-03-30T00:08:43.025Z,1025.976
2019-03-30T00:08:54.864Z,1025.953
2019-03-30T00:09:06.703Z,1025.9465
2019-03-30T00:09:18.535Z,1025.963
2019-03-30T00:09:30.363Z,1025.9598
2019-03-30T00:09:42.199Z,1025.9711
2019-03-30T00:09:54.177Z,1025.9304
2019-03-30T00:10:06.011Z,1026.0023
2019-03-30T00:10:17.839Z,1025.9926
2019-03-30T00:10:29.671Z,1025.9827
2019-03-30T00:10:41.507Z,1025.9536
2019-03-30T00:10:53.344Z,1025.9794
2019-03-30T00:11:05.179Z,1025.975
2019-03-30T00:11:17.021Z,1025.957
2019-03-30T00:11:28.853Z,1025.9404
2019-03-30T00:11:40.680Z,1025.9566
2019-03-30T00:11:52.514Z,1025.9682
2019-03-30T00:12:04.346Z,1025.9554
2019-03-30T00:12:16.184Z,1025.9504
2019-03-30T00:12:28.011Z,1025.9749
2019-03-30T00:12:39.843Z,1025.9686
2019-03-30T00:12:51.682Z,1025.9879
2019-03-30T00:13:03.517Z,1025.9487
2019-03-30T00:13:15.353Z,1025.9339
2019-03-30T00:13:27.184Z,1025.9715
2019-03-30T00:13:40.010Z,1025.9666
2019-03-30T00:13:51.837Z,1025.9569
2019-03-30T00:14:03.671Z,1025.9256
2019-03-30T00:14:15.501Z,1025.939
2019-03-30T00:14:27.335Z,1025.9323
2019-03-30T00:14:39.168Z,1025.947
2019-03-30T00:14:51.074Z,1025.9191
2019-03-30T00:15:02.908Z,1025.9569
2019-03-30T00:15:14.744Z,1025.9176
2019-03-30T00:15:26.581Z,1025.9255
2019-03-30T00:15:38.416Z,1025.8959
2019-03-30T00:15:50.246Z,1025.937
2019-03-30T00:16:02.075Z,1025.8946
2019-03-30T00:16:13.906Z,1025.8846
2019-03-30T00:16:25.742Z,1025.8568
2019-03-30T00:16:37.565Z,1025.9027
2019-03-30T00:16:49.403Z,1025.8391
2019-03-30T00:17:01.236Z,1025.8846
2019-03-30T00:17:13.064Z,1025.8731
2019-03-30T00:17:24.899Z,1025.8635
2019-03-30T00:17:36.820Z,1025.8779
2019-03-30T00:17:48.562Z,1025.8764
2019-03-30T00:18:00.399Z,1025.9173
2019-03-30T00:18:12.235Z,1025.8731
2019-03-30T00:18:24.081Z,1025.885
2019-03-30T00:18:35.904Z,1025.8946
2019-03-30T00:18:47.726Z,1025.8945
2019-03-30T00:18:59.559Z,1025.8588
2019-03-30T00:19:11.390Z,1025.9145
2019-03-30T00:19:34.334Z,1025.8979
2019-03-30T00:19:36.022Z,1025.8653
2019-03-30T00:19:47.868Z,1025.9223
2019-03-30T00:19:59.707Z,1025.8929
2019-03-30T00:20:11.606Z,1025.9028
2019-03-30T00:20:23.443Z,1025.8553
2019-03-30T00:20:35.281Z,1025.875
2019-03-30T00:20:47.118Z,1025.8781
2019-03-30T00:20:58.945Z,1025.8666
2019-03-30T00:21:10.767Z,1025.8815
2019-03-30T00:21:22.605Z,1025.8472
2019-03-30T00:21:34.443Z,1025.8388
2019-03-30T00:21:46.274Z,1025.9008
2019-03-30T00:21:58.114Z,1025.875
2019-03-30T00:22:09.942Z,1025.8405
2019-03-30T00:22:22.764Z,1025.8648
2019-03-30T00:22:34.592Z,1025.8848
2019-03-30T00:22:46.425Z,1025.8779
2019-03-30T00:22:58.255Z,1025.8226
2019-03-30T00:23:10.085Z,1025.8421
2019-03-30T00:23:21.919Z,1025.8616
2019-03-30T00:23:33.760Z,1025.8487
2019-03-30T00:23:45.585Z,1025.8764
2019-03-30T00:23:57.424Z,1025.8565
2019-03-30T00:24:09.247Z,1025.8927
2019-03-30T00:24:21.086Z,1025.8483
2019-03-30T00:24:32.917Z,1025.8419
2019-03-30T00:24:44.755Z,1025.8305
2019-03-30T00:24:56.592Z,1025.8419
2019-03-30T00:25:08.458Z,1025.8338
2019-03-30T00:25:27.613Z,1025.8043
2019-03-30T00:25:39.454Z,1025.8076
2019-03-30T00:25:52.272Z,1025.8352
2019-03-30T00:26:04.166Z,1025.827
2019-03-30T00:26:15.997Z,1025.8271
2019-03-30T00:26:27.831Z,1025.8109
2019-03-30T00:26:39.668Z,1025.8433
2019-03-30T00:26:51.500Z,1025.8009
2019-03-30T00:27:03.330Z,1025.8399
2019-03-30T00:27:15.162Z,1025.8071
2019-03-30T00:27:27.001Z,1025.7911
2019-03-30T00:27:38.826Z,1025.8188
2019-03-30T00:27:50.656Z,1025.7944
2019-03-30T00:28:02.491Z,1025.8253
2019-03-30T00:28:14.329Z,1025.7974
2019-03-30T00:28:26.159Z,1025.7794
2019-03-30T00:28:37.989Z,1025.7974
2019-03-30T00:28:49.824Z,1025.796
2019-03-30T00:29:01.657Z,1025.7794
2019-03-30T00:29:13.485Z,1025.7989
2019-03-30T00:29:25.319Z,1025.7613
2019-03-30T00:29:37.154Z,1025.7631
2019-03-30T00:29:48.990Z,1025.7874
2019-03-30T00:30:00.826Z,1025.7662
2019-03-30T00:30:12.661Z,1025.773
2019-03-30T00:30:24.478Z,1025.7694
2019-03-30T00:30:36.327Z,1025.7368
2019-03-30T00:30:48.154Z,1025.7368
2019-03-30T00:30:59.993Z,1025.7286
2019-03-30T00:31:11.856Z,1025.7416
2019-03-30T00:31:23.695Z,1025.7532
2019-03-30T00:31:35.532Z,1025.7191
2019-03-30T00:31:47.490Z,1025.7126
2019-03-30T00:31:59.324Z,1025.7354
2019-03-30T00:32:11.158Z,1025.7073
2019-03-30T00:32:22.999Z,1025.7059
2019-03-30T00:32:34.835Z,1025.7241
2019-03-30T00:32:46.670Z,1025.7271
2019-03-30T00:32:58.499Z,1025.7075
2019-03-30T00:33:10.340Z,1025.6782
2019-03-30T00:33:22.175Z,1025.696
2019-03-30T00:33:34.009Z,1025.7027
2019-03-30T00:33:45.848Z,1025.7044
2019-03-30T00:33:57.680Z,1025.6864
2019-03-30T00:34:09.512Z,1025.6801
2019-03-30T00:34:21.349Z,1025.7014
2019-03-30T00:34:33.182Z,1025.6685
2019-03-30T00:34:45.020Z,1025.6767
2019-03-30T00:34:56.852Z,1025.6882
2019-03-30T00:35:08.689Z,1025.6787
2019-03-30T00:35:20.521Z,1025.7211
2019-03-30T00:35:32.354Z,1025.7132
2019-03-30T00:35:44.186Z,1025.682
2019-03-30T00:35:56.019Z,1025.6984
2019-03-30T00:36:07.854Z,1025.6787
2019-03-30T00:36:19.688Z,1025.656
2019-03-30T00:36:31.516Z,1025.6661
2019-03-30T00:36:43.348Z,1025.6789
2019-03-30T00:36:55.325Z,1025.6988
2019-03-30T00:37:07.164Z,1025.6823
2019-03-30T00:37:18.997Z,1025.6826
2019-03-30T00:37:30.829Z,1025.6254
2019-03-30T00:37:42.664Z,1025.6188
2019-03-30T00:37:54.504Z,1025.6239
2019-03-30T00:38:06.340Z,1025.6287
2019-03-30T00:38:18.160Z,1025.665
2019-03-30T00:38:29.991Z,1025.603
2019-03-30T00:38:41.821Z,1025.634
2019-03-30T00:38:53.649Z,1025.6213
2019-03-30T00:39:05.492Z,1025.6213
2019-03-30T00:39:17.322Z,1025.6329
2019-03-30T00:39:29.155Z,1025.6198
2019-03-30T00:39:40.992Z,1025.6296
2019-03-30T00:39:52.825Z,1025.5759
2019-03-30T00:40:04.664Z,1025.6153
2019-03-30T00:40:16.495Z,1025.6156
2019-03-30T00:40:28.332Z,1025.632
2019-03-30T00:40:40.158Z,1025.593
2019-03-30T00:40:51.998Z,1025.6237
2019-03-30T00:41:03.822Z,1025.6048
2019-03-30T00:41:15.653Z,1025.5916
2019-03-30T00:41:27.483Z,1025.6489
2019-03-30T00:41:40.308Z,1025.6326
2019-03-30T00:41:52.295Z,1025.6313
2019-03-30T00:42:04.136Z,1025.6331
2019-03-30T00:42:15.972Z,1025.6151
2019-03-30T00:42:27.801Z,1025.5971
2019-03-30T00:42:39.639Z,1025.5727
2019-03-30T00:42:51.470Z,1025.607
2019-03-30T00:43:03.305Z,1025.5595
2019-03-30T00:43:15.131Z,1025.5958
2019-03-30T00:43:26.960Z,1025.607
2019-03-30T00:43:38.789Z,1025.6009
2019-03-30T00:43:50.628Z,1025.5975
2019-03-30T00:44:02.463Z,1025.5617
2019-03-30T00:44:14.294Z,1025.5765
2019-03-30T00:44:26.128Z,1025.6059
2019-03-30T00:44:37.957Z,1025.5781
2019-03-30T00:44:49.792Z,1025.5766
2019-03-30T00:45:01.626Z,1025.6108
2019-03-30T00:45:13.455Z,1025.634
2019-03-30T00:45:25.295Z,1025.5883
2019-03-30T00:45:37.128Z,1025.5994
2019-03-30T00:45:48.960Z,1025.5703
2019-03-30T00:46:00.798Z,1025.5555
2019-03-30T00:46:12.625Z,1025.559
2019-03-30T00:46:24.443Z,1025.6062
2019-03-30T00:46:36.274Z,1025.5997
2019-03-30T00:46:48.139Z,1025.5981
2019-03-30T00:46:59.979Z,1025.6243
2019-03-30T00:47:11.811Z,1025.5981
2019-03-30T00:47:23.629Z,1025.5655
2019-03-30T00:47:35.454Z,1025.5491
2019-03-30T00:47:47.286Z,1025.5853
2019-03-30T00:47:59.121Z,1025.5474
2019-03-30T00:48:10.982Z,1025.5394
2019-03-30T00:48:22.819Z,1025.5361
2019-03-30T00:48:34.651Z,1025.5816
2019-03-30T00:48:46.485Z,1025.5604
2019-03-30T00:48:58.313Z,1025.4968
2019-03-30T00:49:10.144Z,1025.567
2019-03-30T00:49:21.980Z,1025.5537
2019-03-30T00:49:33.840Z,1025.5307
2019-03-30T00:49:49.221Z,1025.5079
2019-03-30T00:49:58.459Z,1025.5274
2019-03-30T00:50:10.291Z,1025.4831
2019-03-30T00:50:22.126Z,1025.5389
2019-03-30T00:50:33.957Z,1025.5091
2019-03-30T00:50:45.819Z,1025.5124
2019-03-30T00:50:57.669Z,1025.4827
2019-03-30T00:51:10.492Z,1025.5026
2019-03-30T00:51:22.327Z,1025.5169
2019-03-30T00:51:34.154Z,1025.4875
2019-03-30T00:51:45.986Z,1025.4792
2019-03-30T00:51:57.819Z,1025.4859
2019-03-30T00:52:09.688Z,1025.4974
2019-03-30T00:52:21.515Z,1025.5119
2019-03-30T00:52:33.346Z,1025.476
2019-03-30T00:52:45.182Z,1025.4923
2019-03-30T00:52:57.013Z,1025.5068
2019-03-30T00:53:08.846Z,1025.4956
2019-03-30T00:53:20.674Z,1025.4842
2019-03-30T00:53:32.510Z,1025.4758
2019-03-30T00:53:44.342Z,1025.4613
2019-03-30T00:53:56.180Z,1025.5217
2019-03-30T00:54:08.051Z,1025.5203
2019-03-30T00:54:19.887Z,1025.4843
2019-03-30T00:54:31.721Z,1025.4842
2019-03-30T00:54:43.544Z,1025.4956
2019-03-30T00:54:55.380Z,1025.4744
2019-03-30T00:55:07.210Z,1025.5072
2019-03-30T00:55:19.045Z,1025.4552
2019-03-30T00:55:30.886Z,1025.4993
2019-03-30T00:55:42.720Z,1025.4586
2019-03-30T00:55:54.547Z,1025.4733
2019-03-30T00:56:06.384Z,1025.4637
2019-03-30T00:56:18.214Z,1025.462
2019-03-30T00:56:30.046Z,1025.4996
2019-03-30T00:56:41.887Z,1025.4573
2019-03-30T00:56:53.727Z,1025.449
2019-03-30T00:57:05.561Z,1025.4736
2019-03-30T00:57:17.397Z,1025.4708
2019-03-30T00:57:29.235Z,1025.4509
2019-03-30T00:57:41.070Z,1025.446
2019-03-30T00:57:52.939Z,1025.4692
2019-03-30T00:58:04.769Z,1025.4183
2019-03-30T00:58:17.601Z,1025.3874
2019-03-30T00:58:29.421Z,1025.4101
2019-03-30T00:58:41.255Z,1025.4139
2019-03-30T00:58:53.091Z,1025.4384
2019-03-30T00:59:04.930Z,1025.4204
2019-03-30T00:59:16.757Z,1025.4222
2019-03-30T00:59:28.597Z,1025.432
2019-03-30T00:59:40.428Z,1025.4794
2019-03-30T00:59:52.263Z,1025.4058
2019-03-30T01:00:04.101Z,1025.4373
2019-03-30T01:00:15.961Z,1025.4438
2019-03-30T01:00:27.799Z,1025.3525
2019-03-30T01:00:39.621Z,1025.4061
2019-03-30T01:00:51.453Z,1025.3839
2019-03-30T01:01:03.287Z,1025.3675
2019-03-30T01:01:15.174Z,1025.374
2019-03-30T01:01:27.013Z,1025.3789
2019-03-30T01:01:38.850Z,1025.3642
2019-03-30T01:01:50.682Z,1025.3857
2019-03-30T01:02:02.520Z,1025.3612
2019-03-30T01:02:14.346Z,1025.3631
2019-03-30T01:02:26.178Z,1025.3826
2019-03-30T01:02:38.017Z,1025.4119
2019-03-30T01:02:49.847Z,1025.3666
2019-03-30T01:03:01.684Z,1025.3208
2019-03-30T01:03:13.546Z,1025.3309
2019-03-30T01:03:25.386Z,1025.3422
2019-03-30T01:03:37.223Z,1025.3292
2019-03-30T01:03:49.058Z,1025.3277
2019-03-30T01:04:00.888Z,1025.331
2019-03-30T01:04:12.725Z,1025.3555
2019-03-30T01:04:24.548Z,1025.377
2019-03-30T01:04:36.382Z,1025.2839
2019-03-30T01:04:48.215Z,1025.3087
2019-03-30T01:05:00.051Z,1025.3215
2019-03-30T01:05:11.880Z,1025.3184
2019-03-30T01:05:23.715Z,1025.3203
2019-03-30T01:05:35.542Z,1025.2891
2019-03-30T01:05:47.381Z,1025.2647
2019-03-30T01:05:59.203Z,1025.2877
2019-03-30T01:06:11.043Z,1025.2763
2019-03-30T01:06:22.882Z,1025.3107
2019-03-30T01:06:34.701Z,1025.2325
2019-03-30T01:06:46.536Z,1025.2421
2019-03-30T01:06:58.370Z,1025.2244
2019-03-30T01:07:10.201Z,1025.254
2019-03-30T01:07:22.037Z,1025.2537
2019-03-30T01:07:33.870Z,1025.29
2019-03-30T01:07:45.731Z,1025.2819
2019-03-30T01:07:57.568Z,1025.223
2019-03-30T01:08:09.396Z,1025.2297
2019-03-30T01:08:21.243Z,1025.2117
2019-03-30T01:08:33.063Z,1025.2084
2019-03-30T01:08:44.890Z,1025.2169
2019-03-30T01:08:56.725Z,1025.2348
2019-03-30T01:09:08.558Z,1025.1811
2019-03-30T01:09:20.384Z,1025.1861
2019-03-30T01:09:32.221Z,1025.1925
2019-03-30T01:09:44.056Z,1025.1878
2019-03-30T01:09:55.894Z,1025.1647
2019-03-30T01:10:07.748Z,1025.1601
2019-03-30T01:10:19.581Z,1025.1876
2019-03-30T01:10:31.415Z,1025.1843
2019-03-30T01:10:43.256Z,1025.1619
2019-03-30T01:10:55.096Z,1025.1862
2019-03-30T01:11:06.937Z,1025.1798
2019-03-30T01:11:18.766Z,1025.1702
2019-03-30T01:11:30.603Z,1025.1948
2019-03-30T01:11:42.443Z,1025.1669
2019-03-30T01:11:54.281Z,1025.1884
2019-03-30T01:12:06.114Z,1025.1639
2019-03-30T01:12:17.949Z,1025.2146
2019-03-30T01:12:29.778Z,1025.151
2019-03-30T01:12:41.612Z,1025.1706
2019-03-30T01:12:53.439Z,1025.1558
2019-03-30T01:13:05.271Z,1025.192
2019-03-30T01:13:17.109Z,1025.182
2019-03-30T01:13:28.939Z,1025.1625
2019-03-30T01:13:40.782Z,1025.1918
2019-03-30T01:13:52.616Z,1025.1853
2019-03-30T01:14:04.449Z,1025.1149
2019-03-30T01:14:16.283Z,1025.1053
2019-03-30T01:14:28.124Z,1025.0955
2019-03-30T01:14:39.959Z,1025.1541
2019-03-30T01:14:51.787Z,1025.128
2019-03-30T01:15:03.657Z,1025.1558
2019-03-30T01:15:15.489Z,1025.1296
2019-03-30T01:15:27.323Z,1025.1508
2019-03-30T01:15:39.155Z,1025.1234
2019-03-30T01:15:50.990Z,1025.1296
2019-03-30T01:16:02.833Z,1025.1231
2019-03-30T01:16:14.733Z,1025.164
2019-03-30T01:16:27.562Z,1025.1655
2019-03-30T01:16:39.402Z,1025.1459
2019-03-30T01:16:51.236Z,1025.1589
2019-03-30T01:17:03.054Z,1025.1442
2019-03-30T01:17:14.892Z,1025.1588
2019-03-30T01:17:26.726Z,1025.126
2019-03-30T01:17:38.564Z,1025.139
2019-03-30T01:17:50.399Z,1025.1488
2019-03-30T01:18:02.229Z,1025.1506
2019-03-30T01:18:14.059Z,1025.139
2019-03-30T01:18:25.889Z,1025.1539
2019-03-30T01:18:37.723Z,1025.1635
2019-03-30T01:18:49.556Z,1025.1523
2019-03-30T01:19:01.388Z,1025.1325
2019-03-30T01:19:13.223Z,1025.1505
2019-03-30T01:19:25.057Z,1025.126
2019-03-30T01:19:36.889Z,1025.1193
2019-03-30T01:20:01.811Z,1025.1439
2019-03-30T01:20:02.958Z,1025.1469
2019-03-30T01:20:14.332Z,1025.1469
2019-03-30T01:20:26.165Z,1025.1323
2019-03-30T01:20:38.008Z,1025.1274
2019-03-30T01:20:49.843Z,1025.1302
2019-03-30T01:21:01.680Z,1025.1354
2019-03-30T01:21:13.574Z,1025.1207
2019-03-30T01:21:25.412Z,1025.1138
2019-03-30T01:21:37.247Z,1025.0913
2019-03-30T01:21:49.085Z,1025.1104
2019-03-30T01:22:00.906Z,1025.117
2019-03-30T01:22:12.738Z,1025.1037
2019-03-30T01:22:24.579Z,1025.1201
2019-03-30T01:22:36.484Z,1025.102
2019-03-30T01:22:48.237Z,1025.1184
2019-03-30T01:23:00.076Z,1025.0888
2019-03-30T01:23:11.971Z,1025.1116
2019-03-30T01:23:23.738Z,1025.1065
2019-03-30T01:23:35.574Z,1025.0949
2019-03-30T01:23:47.414Z,1025.1097
2019-03-30T01:23:59.255Z,1025.1047
2019-03-30T01:24:11.074Z,1025.1044
2019-03-30T01:24:22.905Z,1025.1193
2019-03-30T01:24:34.742Z,1025.0881
2019-03-30T01:24:46.578Z,1025.1159
2019-03-30T01:24:58.413Z,1025.0898
2019-03-30T01:25:10.243Z,1025.1191
2019-03-30T01:25:22.079Z,1025.0473
2019-03-30T01:25:33.913Z,1025.1173
2019-03-30T01:25:45.753Z,1025.0635
2019-03-30T01:25:57.583Z,1025.0729
2019-03-30T01:26:09.450Z,1025.0355
2019-03-30T01:26:21.339Z,1025.0402
2019-03-30T01:26:33.182Z,1025.0484
2019-03-30T01:26:45.014Z,1025.0484
2019-03-30T01:26:56.846Z,1025.0678
2019-03-30T01:27:08.682Z,1025.0859
2019-03-30T01:27:20.516Z,1025.0645
2019-03-30T01:27:32.343Z,1025.0628
2019-03-30T01:27:44.181Z,1025.0317
2019-03-30T01:27:56.013Z,1025.0529
2019-03-30T01:28:07.841Z,1025.0642
2019-03-30T01:28:19.676Z,1025.0609
2019-03-30T01:28:31.508Z,1025.0528
2019-03-30T01:28:43.350Z,1025.0756
2019-03-30T01:28:55.181Z,1025.0543
2019-03-30T01:29:07.011Z,1025.0561
2019-03-30T01:29:18.844Z,1025.0316
2019-03-30T01:29:30.683Z,1025.0528
2019-03-30T01:29:42.516Z,1025.04
2019-03-30T01:29:54.346Z,1025.0593
2019-03-30T01:30:06.185Z,1025.0396
2019-03-30T01:30:23.160Z,1025.0122
2019-03-30T01:30:30.794Z,1025.0726
2019-03-30T01:30:42.625Z,1025.0233
2019-03-30T01:30:54.456Z,1025.0316
2019-03-30T01:31:06.293Z,1025.0054
2019-03-30T01:31:18.157Z,1025.0561
2019-03-30T01:31:29.992Z,1025.0003
2019-03-30T01:31:41.820Z,1025.0296
2019-03-30T01:31:53.650Z,1024.9953
2019-03-30T01:32:05.483Z,1024.9464
2019-03-30T01:32:17.318Z,1024.9887
2019-03-30T01:32:29.157Z,1025.0035
2019-03-30T01:32:40.983Z,1024.9772
2019-03-30T01:32:52.808Z,1024.9562
2019-03-30T01:33:04.657Z,1024.9464
2019-03-30T01:33:16.493Z,1024.9593
2019-03-30T01:33:28.326Z,1024.9118
2019-03-30T01:33:40.169Z,1024.9527
2019-03-30T01:33:51.994Z,1024.9462
2019-03-30T01:34:03.822Z,1024.9381
2019-03-30T01:34:15.657Z,1024.9672
2019-03-30T01:34:27.494Z,1024.9445
2019-03-30T01:34:39.328Z,1024.941
2019-03-30T01:34:51.166Z,1024.9736
2019-03-30T01:35:03.007Z,1024.949
2019-03-30T01:35:14.956Z,1024.9295
2019-03-30T01:35:26.765Z,1024.9443
2019-03-30T01:35:38.501Z,1024.9536
2019-03-30T01:35:50.338Z,1024.9587
2019-03-30T01:36:02.178Z,1024.9392
2019-03-30T01:36:14.009Z,1024.9307
2019-03-30T01:36:25.859Z,1024.9553
2019-03-30T01:36:37.691Z,1024.9586
2019-03-30T01:36:49.525Z,1024.9552
2019-03-30T01:37:01.359Z,1024.9112
2019-03-30T01:37:13.196Z,1024.916
2019-03-30T01:37:25.027Z,1024.9337
2019-03-30T01:37:36.861Z,1024.9157
2019-03-30T01:37:48.717Z,1024.9465
2019-03-30T01:38:00.550Z,1024.9436
2019-03-30T01:38:13.374Z,1024.9301
2019-03-30T01:38:25.203Z,1024.9188
2019-03-30T01:38:37.059Z,1024.9056
2019-03-30T01:38:48.891Z,1024.9057
2019-03-30T01:39:00.731Z,1024.9465
2019-03-30T01:39:12.568Z,1024.9575
2019-03-30T01:39:24.399Z,1024.92
2019-03-30T01:39:36.235Z,1024.9217
2019-03-30T01:39:48.055Z,1024.9508
2019-03-30T01:39:59.890Z,1024.8951
2019-03-30T01:40:11.721Z,1024.9409
2019-03-30T01:40:23.555Z,1024.9063
2019-03-30T01:40:35.447Z,1024.8979
2019-03-30T01:40:47.292Z,1024.8587
2019-03-30T01:40:59.037Z,1024.8833
2019-03-30T01:41:10.868Z,1024.8323
2019-03-30T01:41:22.701Z,1024.8225
2019-03-30T01:41:34.537Z,1024.8209
2019-03-30T01:41:46.369Z,1024.8599
2019-03-30T01:41:58.205Z,1024.8159
2019-03-30T01:42:10.038Z,1024.8433
2019-03-30T01:42:21.868Z,1024.8483
2019-03-30T01:42:33.696Z,1024.8336
2019-03-30T01:42:45.526Z,1024.8432
2019-03-30T01:42:57.361Z,1024.8203
2019-03-30T01:43:09.225Z,1024.8315
2019-03-30T01:43:21.057Z,1024.8544
2019-03-30T01:43:32.893Z,1024.8349
2019-03-30T01:43:44.724Z,1024.825
2019-03-30T01:43:56.555Z,1024.8381
2019-03-30T01:44:08.521Z,1024.8282
2019-03-30T01:44:20.350Z,1024.8297
2019-03-30T01:44:32.180Z,1024.8721
2019-03-30T01:44:44.012Z,1024.8394
2019-03-30T01:44:55.850Z,1024.8167
2019-03-30T01:45:07.685Z,1024.8297
2019-03-30T01:45:19.522Z,1024.8117
2019-03-30T01:45:31.357Z,1024.8282
2019-03-30T01:45:43.194Z,1024.8232
2019-03-30T01:45:55.026Z,1024.8605
2019-03-30T01:46:06.857Z,1024.8408
2019-03-30T01:46:18.691Z,1024.8229
2019-03-30T01:46:30.524Z,1024.8392
2019-03-30T01:46:42.358Z,1024.8181
2019-03-30T01:46:54.194Z,1024.8472
2019-03-30T01:47:06.030Z,1024.8276
2019-03-30T01:47:17.869Z,1024.8276
2019-03-30T01:47:29.704Z,1024.8211
2019-03-30T01:47:41.551Z,1024.7998
2019-03-30T01:47:53.388Z,1024.8096
2019-03-30T01:48:05.225Z,1024.7868
2019-03-30T01:48:17.057Z,1024.8195
2019-03-30T01:48:28.888Z,1024.7719
2019-03-30T01:48:40.728Z,1024.8293
2019-03-30T01:48:52.560Z,1024.7868
2019-03-30T01:49:04.414Z,1024.8195
2019-03-30T01:49:16.250Z,1024.8098
2019-03-30T01:49:28.084Z,1024.8032
2019-03-30T01:49:39.970Z,1024.7755
2019-03-30T01:49:51.808Z,1024.7934
2019-03-30T01:50:16.471Z,1024.7967
2019-03-30T01:50:17.869Z,1024.831
2019-03-30T01:50:29.242Z,1024.7803
2019-03-30T01:50:41.075Z,1024.7459
2019-03-30T01:50:52.904Z,1024.7934
2019-03-30T01:51:04.739Z,1024.8013
2019-03-30T01:51:16.573Z,1024.7902
2019-03-30T01:51:28.407Z,1024.8045
2019-03-30T01:51:40.243Z,1024.8013
2019-03-30T01:51:52.080Z,1024.7883
2019-03-30T01:52:03.919Z,1024.7965
2019-03-30T01:52:15.746Z,1024.7589
2019-03-30T01:52:27.581Z,1024.8079
2019-03-30T01:52:39.413Z,1024.7556
2019-03-30T01:52:51.243Z,1024.7785
2019-03-30T01:53:03.079Z,1024.8045
2019-03-30T01:53:14.908Z,1024.7373
2019-03-30T01:53:26.747Z,1024.7619
2019-03-30T01:53:38.578Z,1024.7963
2019-03-30T01:53:50.419Z,1024.7816
2019-03-30T01:54:02.254Z,1024.778
2019-03-30T01:54:14.082Z,1024.7928
2019-03-30T01:54:25.917Z,1024.7518
2019-03-30T01:54:37.783Z,1024.7696
2019-03-30T01:54:49.623Z,1024.7729
2019-03-30T01:55:01.454Z,1024.7584
2019-03-30T01:55:13.330Z,1024.7634
2019-03-30T01:55:25.163Z,1024.7568
2019-03-30T01:55:37.004Z,1024.7519
2019-03-30T01:55:48.833Z,1024.7698
2019-03-30T01:56:00.661Z,1024.7258
2019-03-30T01:56:12.495Z,1024.703
2019-03-30T01:56:24.337Z,1024.7113
2019-03-30T01:56:36.163Z,1024.7261
2019-03-30T01:56:47.981Z,1024.7323
2019-03-30T01:56:59.818Z,1024.713
2019-03-30T01:57:11.659Z,1024.708
2019-03-30T01:57:23.491Z,1024.6918
2019-03-30T01:57:35.332Z,1024.6951
2019-03-30T01:57:47.196Z,1024.6853
2019-03-30T01:57:59.001Z,1024.7102
2019-03-30T01:58:10.838Z,1024.6873
2019-03-30T01:58:22.675Z,1024.6563
2019-03-30T01:58:34.510Z,1024.6647
2019-03-30T01:58:46.348Z,1024.6533
2019-03-30T01:58:58.176Z,1024.6569
2019-03-30T01:59:10.008Z,1024.701
2019-03-30T01:59:21.845Z,1024.6733
2019-03-30T01:59:33.670Z,1024.6705
2019-03-30T01:59:45.504Z,1024.6884
2019-03-30T01:59:57.339Z,1024.6606
2019-03-30T02:00:09.234Z,1024.6706
2019-03-30T02:00:21.028Z,1024.6904
2019-03-30T02:00:32.863Z,1024.6921
2019-03-30T02:00:44.698Z,1024.6743
2019-03-30T02:00:56.535Z,1024.7021
2019-03-30T02:01:08.367Z,1024.7105
2019-03-30T02:01:20.198Z,1024.6695
2019-03-30T02:01:32.033Z,1024.6601
2019-03-30T02:01:43.911Z,1024.6865
2019-03-30T02:01:55.750Z,1024.6668
2019-03-30T02:02:07.589Z,1024.6474
2019-03-30T02:02:19.428Z,1024.6656
2019-03-30T02:02:31.260Z,1024.6331
2019-03-30T02:02:43.087Z,1024.6723
2019-03-30T02:02:54.920Z,1024.6351
2019-03-30T02:03:06.755Z,1024.6154
2019-03-30T02:03:18.585Z,1024.614
2019-03-30T02:03:30.417Z,1024.6551
2019-03-30T02:03:42.249Z,1024.6176
2019-03-30T02:03:54.078Z,1024.6323
2019-03-30T02:04:05.911Z,1024.6342
2019-03-30T02:04:17.741Z,1024.6522
2019-03-30T02:04:29.574Z,1024.6767
2019-03-30T02:04:41.407Z,1024.6362
2019-03-30T02:04:53.241Z,1024.6311
2019-03-30T02:05:05.072Z,1024.6657
2019-03-30T02:05:16.914Z,1024.6331
2019-03-30T02:05:28.740Z,1024.6495
2019-03-30T02:05:40.575Z,1024.6577
2019-03-30T02:05:52.404Z,1024.6267
2019-03-30T02:06:04.235Z,1024.6417
2019-03-30T02:06:16.064Z,1024.6518
2019-03-30T02:06:27.898Z,1024.6761
2019-03-30T02:06:39.879Z,1024.6437
2019-03-30T02:06:51.713Z,1024.6324
2019-03-30T02:07:03.549Z,1024.6473
2019-03-30T02:07:15.382Z,1024.6394
2019-03-30T02:07:27.216Z,1024.656
2019-03-30T02:07:39.057Z,1024.6413
2019-03-30T02:07:50.878Z,1024.6367
2019-03-30T02:08:02.712Z,1024.6137
2019-03-30T02:08:14.544Z,1024.6204
2019-03-30T02:08:26.375Z,1024.6419
2019-03-30T02:08:38.208Z,1024.5898
2019-03-30T02:08:50.057Z,1024.6192
2019-03-30T02:09:01.881Z,1024.6226
2019-03-30T02:09:13.713Z,1024.6048
2019-03-30T02:09:25.550Z,1024.6016
2019-03-30T02:09:37.379Z,1024.5852
2019-03-30T02:09:49.213Z,1024.5905
2019-03-30T02:10:01.045Z,1024.6182
2019-03-30T02:10:12.880Z,1024.6021
2019-03-30T02:10:24.713Z,1024.612
2019-03-30T02:10:36.547Z,1024.6268
2019-03-30T02:10:48.378Z,1024.5877
2019-03-30T02:11:00.211Z,1024.5992
2019-03-30T02:11:12.051Z,1024.5717
2019-03-30T02:11:23.887Z,1024.5963
2019-03-30T02:11:35.721Z,1024.593
2019-03-30T02:11:47.604Z,1024.5671
2019-03-30T02:11:59.438Z,1024.5656
2019-03-30T02:12:11.256Z,1024.5883
2019-03-30T02:12:23.091Z,1024.5493
2019-03-30T02:12:34.927Z,1024.5528
2019-03-30T02:12:46.763Z,1024.5643
2019-03-30T02:12:58.601Z,1024.5579
2019-03-30T02:13:10.443Z,1024.5759
2019-03-30T02:13:22.270Z,1024.5515
2019-03-30T02:13:34.107Z,1024.5512
2019-03-30T02:13:45.945Z,1024.5598
2019-03-30T02:13:57.813Z,1024.5498
2019-03-30T02:14:09.609Z,1024.5793
2019-03-30T02:14:21.440Z,1024.5842
2019-03-30T02:14:33.269Z,1024.5595
2019-03-30T02:14:45.098Z,1024.4976
2019-03-30T02:14:56.938Z,1024.5549
2019-03-30T02:15:08.763Z,1024.5107
2019-03-30T02:15:20.589Z,1024.5319
2019-03-30T02:15:32.417Z,1024.5501
2019-03-30T02:15:44.247Z,1024.5272